sensor_id;sensor_type;location;lat;lon;timestamp;pressure;altitude;pressure_sealevel;temperature;humidity
19831;BME280;10076;52.008;4.708;2024-01-06T00:00:18;100498.34;;;8.93;100.00
19831;BME280;10076;52.008;4.708;2024-01-06T00:02:43;100502.44;;;8.97;100.00
19831;BME280;10076;52.008;4.708;2024-01-06T00:05:09;100501.19;;;9.03;100.00
19831;BME280;10076;52.008;4.708;2024-01-06T00:07:34;100503.19;;;8.87;100.00
19831;BME280;10076;52.008;4.708;2024-01-06T00:09:59;100514.34;;;8.91;100.00
19831;BME280;10076;52.008;4.708;2024-01-06T00:12:25;100513.00;;;8.85;100.00
19831;BME280;10076;52.008;4.708;2024-01-06T00:14:50;100510.47;;;8.84;100.00
19831;BME280;10076;52.008;4.708;2024-01-06T00:17:16;100506.47;;;9.03;100.00
19831;BME280;10076;52.008;4.708;2024-01-06T00:19:42;100508.16;;;9.04;100.00
19831;BME280;10076;52.008;4.708;2024-01-06T00:22:08;100512.03;;;8.98;100.00
19831;BME280;10076;52.008;4.708;2024-01-06T00:24:33;100508.34;;;9.01;100.00
19831;BME280;10076;52.008;4.708;2024-01-06T00:26:58;100513.13;;;8.84;100.00
19831;BME280;10076;52.008;4.708;2024-01-06T00:29:24;100517.84;;;8.91;100.00
19831;BME280;10076;52.008;4.708;2024-01-06T00:31:49;100515.53;;;8.87;100.00
19831;BME280;10076;52.008;4.708;2024-01-06T00:34:14;100511.28;;;8.96;100.00
19831;BME280;10076;52.008;4.708;2024-01-06T00:36:40;100514.78;;;8.85;100.00
19831;BME280;10076;52.008;4.708;2024-01-06T00:39:05;100519.09;;;8.73;100.00
19831;BME280;10076;52.008;4.708;2024-01-06T00:41:30;100521.19;;;8.68;100.00
19831;BME280;10076;52.008;4.708;2024-01-06T00:43:56;100526.00;;;8.62;100.00
19831;BME280;10076;52.008;4.708;2024-01-06T00:46:21;100527.00;;;8.73;100.00
19831;BME280;10076;52.008;4.708;2024-01-06T00:48:46;100532.66;;;8.80;100.00
19831;BME280;10076;52.008;4.708;2024-01-06T00:51:11;100535.75;;;8.86;100.00
19831;BME280;10076;52.008;4.708;2024-01-06T00:53:37;100536.59;;;8.74;100.00
19831;BME280;10076;52.008;4.708;2024-01-06T00:56:02;100546.25;;;8.74;100.00
19831;BME280;10076;52.008;4.708;2024-01-06T00:58:27;100541.94;;;9.10;100.00
19831;BME280;10076;52.008;4.708;2024-01-06T01:00:53;100537.81;;;8.81;100.00
19831;BME280;10076;52.008;4.708;2024-01-06T01:03:18;100541.09;;;8.85;100.00
19831;BME280;10076;52.008;4.708;2024-01-06T01:05:43;100543.63;;;8.74;100.00
19831;BME280;10076;52.008;4.708;2024-01-06T01:08:09;100544.44;;;8.62;100.00
19831;BME280;10076;52.008;4.708;2024-01-06T01:10:34;100552.56;;;8.71;100.00
19831;BME280;10076;52.008;4.708;2024-01-06T01:12:59;100550.03;;;8.70;100.00
19831;BME280;10076;52.008;4.708;2024-01-06T01:15:24;100558.88;;;8.81;100.00
19831;BME280;10076;52.008;4.708;2024-01-06T01:17:50;100566.38;;;8.75;100.00
19831;BME280;10076;52.008;4.708;2024-01-06T01:20:15;100571.09;;;8.57;100.00
19831;BME280;10076;52.008;4.708;2024-01-06T01:22:40;100576.47;;;8.81;100.00
19831;BME280;10076;52.008;4.708;2024-01-06T01:25:06;100587.13;;;8.92;100.00
19831;BME280;10076;52.008;4.708;2024-01-06T01:27:34;100591.09;;;8.72;100.00
19831;BME280;10076;52.008;4.708;2024-01-06T01:29:59;100589.00;;;8.77;100.00
19831;BME280;10076;52.008;4.708;2024-01-06T01:32:24;100592.97;;;8.70;100.00
19831;BME280;10076;52.008;4.708;2024-01-06T01:34:50;100584.44;;;8.67;100.00
19831;BME280;10076;52.008;4.708;2024-01-06T01:37:15;100593.31;;;8.78;100.00
19831;BME280;10076;52.008;4.708;2024-01-06T01:39:41;100599.41;;;8.79;100.00
19831;BME280;10076;52.008;4.708;2024-01-06T01:42:06;100599.53;;;8.77;100.00
19831;BME280;10076;52.008;4.708;2024-01-06T01:44:31;100596.47;;;8.71;100.00
19831;BME280;10076;52.008;4.708;2024-01-06T01:46:57;100609.47;;;8.86;100.00
19831;BME280;10076;52.008;4.708;2024-01-06T01:49:22;100601.22;;;8.78;100.00
19831;BME280;10076;52.008;4.708;2024-01-06T01:51:48;100611.91;;;8.63;100.00
19831;BME280;10076;52.008;4.708;2024-01-06T01:54:15;100611.75;;;8.66;100.00
19831;BME280;10076;52.008;4.708;2024-01-06T01:56:41;100619.69;;;8.52;100.00
19831;BME280;10076;52.008;4.708;2024-01-06T01:59:11;100622.25;;;8.66;100.00
19831;BME280;10076;52.008;4.708;2024-01-06T02:01:37;100624.56;;;8.70;100.00
19831;BME280;10076;52.008;4.708;2024-01-06T02:04:02;100632.69;;;8.80;100.00
19831;BME280;10076;52.008;4.708;2024-01-06T02:06:28;100632.78;;;8.66;100.00
19831;BME280;10076;52.008;4.708;2024-01-06T02:08:53;100631.16;;;8.51;100.00
19831;BME280;10076;52.008;4.708;2024-01-06T02:11:19;100627.38;;;8.55;100.00
19831;BME280;10076;52.008;4.708;2024-01-06T02:13:44;100637.56;;;8.47;100.00
19831;BME280;10076;52.008;4.708;2024-01-06T02:16:09;100629.75;;;8.72;100.00
19831;BME280;10076;52.008;4.708;2024-01-06T02:18:35;100634.66;;;8.64;100.00
19831;BME280;10076;52.008;4.708;2024-01-06T02:21:01;100642.97;;;8.58;100.00
19831;BME280;10076;52.008;4.708;2024-01-06T02:23:28;100641.13;;;8.72;100.00
19831;BME280;10076;52.008;4.708;2024-01-06T02:25:54;100660.84;;;8.53;100.00
19831;BME280;10076;52.008;4.708;2024-01-06T02:28:19;100656.13;;;8.58;100.00
19831;BME280;10076;52.008;4.708;2024-01-06T02:30:45;100662.38;;;8.43;100.00
19831;BME280;10076;52.008;4.708;2024-01-06T02:33:10;100666.63;;;8.31;100.00
19831;BME280;10076;52.008;4.708;2024-01-06T02:35:36;100672.41;;;8.24;100.00
19831;BME280;10076;52.008;4.708;2024-01-06T02:38:01;100670.69;;;8.23;100.00
19831;BME280;10076;52.008;4.708;2024-01-06T02:40:27;100672.91;;;8.43;100.00
19831;BME280;10076;52.008;4.708;2024-01-06T02:42:52;100675.22;;;8.47;100.00
19831;BME280;10076;52.008;4.708;2024-01-06T02:45:18;100681.38;;;8.34;100.00
19831;BME280;10076;52.008;4.708;2024-01-06T02:47:43;100685.97;;;8.44;100.00
19831;BME280;10076;52.008;4.708;2024-01-06T02:50:08;100677.66;;;8.24;100.00
19831;BME280;10076;52.008;4.708;2024-01-06T02:52:34;100687.13;;;8.26;100.00
19831;BME280;10076;52.008;4.708;2024-01-06T02:54:59;100686.53;;;8.35;100.00
19831;BME280;10076;52.008;4.708;2024-01-06T02:57:26;100685.16;;;8.16;100.00
19831;BME280;10076;52.008;4.708;2024-01-06T02:59:51;100692.56;;;8.10;100.00
19831;BME280;10076;52.008;4.708;2024-01-06T03:02:17;100695.13;;;8.25;100.00
19831;BME280;10076;52.008;4.708;2024-01-06T03:04:42;100709.38;;;8.21;100.00
19831;BME280;10076;52.008;4.708;2024-01-06T03:07:07;100702.72;;;8.02;100.00
19831;BME280;10076;52.008;4.708;2024-01-06T03:09:33;100705.38;;;8.16;100.00
19831;BME280;10076;52.008;4.708;2024-01-06T03:11:58;100704.97;;;8.08;100.00
19831;BME280;10076;52.008;4.708;2024-01-06T03:14:23;100710.91;;;8.25;100.00
19831;BME280;10076;52.008;4.708;2024-01-06T03:16:49;100713.16;;;8.17;100.00
19831;BME280;10076;52.008;4.708;2024-01-06T03:19:14;100716.16;;;8.25;100.00
19831;BME280;10076;52.008;4.708;2024-01-06T03:21:39;100716.06;;;8.26;100.00
19831;BME280;10076;52.008;4.708;2024-01-06T03:24:07;100714.75;;;8.20;100.00
19831;BME280;10076;52.008;4.708;2024-01-06T03:26:34;100721.41;;;8.11;100.00
19831;BME280;10076;52.008;4.708;2024-01-06T03:28:59;100720.84;;;8.34;100.00
19831;BME280;10076;52.008;4.708;2024-01-06T03:31:25;100724.59;;;8.30;100.00
19831;BME280;10076;52.008;4.708;2024-01-06T03:33:50;100735.13;;;8.16;100.00
19831;BME280;10076;52.008;4.708;2024-01-06T03:36:17;100733.06;;;8.21;100.00
19831;BME280;10076;52.008;4.708;2024-01-06T03:38:42;100733.50;;;8.14;100.00
19831;BME280;10076;52.008;4.708;2024-01-06T03:41:07;100738.31;;;8.21;100.00
19831;BME280;10076;52.008;4.708;2024-01-06T03:43:33;100740.19;;;8.05;100.00
19831;BME280;10076;52.008;4.708;2024-01-06T03:45:58;100745.09;;;8.25;100.00
19831;BME280;10076;52.008;4.708;2024-01-06T03:48:25;100749.59;;;8.23;100.00
19831;BME280;10076;52.008;4.708;2024-01-06T03:50:50;100741.69;;;8.37;100.00
19831;BME280;10076;52.008;4.708;2024-01-06T03:53:16;100753.53;;;8.16;100.00
19831;BME280;10076;52.008;4.708;2024-01-06T03:55:41;100748.84;;;8.07;100.00
19831;BME280;10076;52.008;4.708;2024-01-06T03:58:06;100755.47;;;8.13;100.00
19831;BME280;10076;52.008;4.708;2024-01-06T04:00:31;100762.38;;;8.15;100.00
19831;BME280;10076;52.008;4.708;2024-01-06T04:02:57;100760.69;;;8.14;100.00
19831;BME280;10076;52.008;4.708;2024-01-06T04:05:22;100767.06;;;8.24;100.00
19831;BME280;10076;52.008;4.708;2024-01-06T04:07:47;100763.09;;;8.03;100.00
19831;BME280;10076;52.008;4.708;2024-01-06T04:10:13;100768.56;;;8.28;100.00
19831;BME280;10076;52.008;4.708;2024-01-06T04:12:38;100768.66;;;7.99;100.00
19831;BME280;10076;52.008;4.708;2024-01-06T04:15:04;100776.81;;;8.08;100.00
19831;BME280;10076;52.008;4.708;2024-01-06T04:17:29;100786.41;;;8.23;100.00
19831;BME280;10076;52.008;4.708;2024-01-06T04:19:55;100777.19;;;8.02;100.00
19831;BME280;10076;52.008;4.708;2024-01-06T04:22:20;100785.94;;;8.30;100.00
19831;BME280;10076;52.008;4.708;2024-01-06T04:24:45;100784.63;;;8.23;100.00
19831;BME280;10076;52.008;4.708;2024-01-06T04:27:10;100781.78;;;8.13;100.00
19831;BME280;10076;52.008;4.708;2024-01-06T04:29:36;100786.97;;;8.28;100.00
19831;BME280;10076;52.008;4.708;2024-01-06T04:32:01;100794.63;;;8.03;100.00
19831;BME280;10076;52.008;4.708;2024-01-06T04:34:27;100794.25;;;8.09;100.00
19831;BME280;10076;52.008;4.708;2024-01-06T04:36:52;100792.94;;;7.88;100.00
19831;BME280;10076;52.008;4.708;2024-01-06T04:39:17;100797.56;;;7.99;100.00
19831;BME280;10076;52.008;4.708;2024-01-06T04:41:43;100802.34;;;7.78;100.00
19831;BME280;10076;52.008;4.708;2024-01-06T04:44:08;100805.31;;;7.72;100.00
19831;BME280;10076;52.008;4.708;2024-01-06T04:46:34;100801.28;;;7.95;100.00
19831;BME280;10076;52.008;4.708;2024-01-06T04:48:59;100801.03;;;7.85;100.00
19831;BME280;10076;52.008;4.708;2024-01-06T04:51:24;100800.19;;;7.99;100.00
19831;BME280;10076;52.008;4.708;2024-01-06T04:53:50;100806.91;;;7.89;100.00
19831;BME280;10076;52.008;4.708;2024-01-06T04:56:15;100802.78;;;8.14;100.00
19831;BME280;10076;52.008;4.708;2024-01-06T04:58:40;100805.06;;;7.91;100.00
19831;BME280;10076;52.008;4.708;2024-01-06T05:01:06;100806.84;;;8.04;100.00
19831;BME280;10076;52.008;4.708;2024-01-06T05:03:31;100822.69;;;7.89;100.00
19831;BME280;10076;52.008;4.708;2024-01-06T05:05:56;100809.84;;;7.98;100.00
19831;BME280;10076;52.008;4.708;2024-01-06T05:08:22;100817.56;;;8.01;100.00
19831;BME280;10076;52.008;4.708;2024-01-06T05:10:52;100829.47;;;7.93;100.00
19831;BME280;10076;52.008;4.708;2024-01-06T05:13:18;100832.22;;;7.91;100.00
19831;BME280;10076;52.008;4.708;2024-01-06T05:15:43;100827.13;;;7.88;100.00
19831;BME280;10076;52.008;4.708;2024-01-06T05:18:09;100835.38;;;7.82;100.00
19831;BME280;10076;52.008;4.708;2024-01-06T05:20:34;100838.47;;;7.89;100.00
19831;BME280;10076;52.008;4.708;2024-01-06T05:22:59;100842.16;;;8.00;100.00
19831;BME280;10076;52.008;4.708;2024-01-06T05:25:25;100834.97;;;7.74;100.00
19831;BME280;10076;52.008;4.708;2024-01-06T05:27:50;100845.72;;;7.85;100.00
19831;BME280;10076;52.008;4.708;2024-01-06T05:30:15;100845.66;;;7.71;100.00
19831;BME280;10076;52.008;4.708;2024-01-06T05:32:41;100845.84;;;7.68;100.00
19831;BME280;10076;52.008;4.708;2024-01-06T05:35:06;100850.53;;;7.63;100.00
19831;BME280;10076;52.008;4.708;2024-01-06T05:37:32;100850.00;;;7.86;100.00
19831;BME280;10076;52.008;4.708;2024-01-06T05:39:57;100847.84;;;7.79;100.00
19831;BME280;10076;52.008;4.708;2024-01-06T05:42:26;100849.81;;;7.75;100.00
19831;BME280;10076;52.008;4.708;2024-01-06T05:44:51;100854.00;;;7.64;100.00
19831;BME280;10076;52.008;4.708;2024-01-06T05:47:17;100858.03;;;7.69;100.00
19831;BME280;10076;52.008;4.708;2024-01-06T05:49:42;100858.09;;;7.83;100.00
19831;BME280;10076;52.008;4.708;2024-01-06T05:52:09;100867.09;;;7.79;100.00
19831;BME280;10076;52.008;4.708;2024-01-06T05:54:34;100876.81;;;7.93;100.00
19831;BME280;10076;52.008;4.708;2024-01-06T05:57:00;100868.16;;;7.91;100.00
19831;BME280;10076;52.008;4.708;2024-01-06T05:59:25;100875.81;;;7.80;100.00
19831;BME280;10076;52.008;4.708;2024-01-06T06:01:50;100877.31;;;7.84;100.00
19831;BME280;10076;52.008;4.708;2024-01-06T06:04:17;100884.13;;;7.88;100.00
19831;BME280;10076;52.008;4.708;2024-01-06T06:06:42;100891.28;;;7.70;100.00
19831;BME280;10076;52.008;4.708;2024-01-06T06:09:08;100891.50;;;7.52;100.00
19831;BME280;10076;52.008;4.708;2024-01-06T06:11:35;100902.09;;;7.80;100.00
19831;BME280;10076;52.008;4.708;2024-01-06T06:14:00;100904.31;;;7.72;100.00
19831;BME280;10076;52.008;4.708;2024-01-06T06:16:28;100914.56;;;7.76;100.00
19831;BME280;10076;52.008;4.708;2024-01-06T06:18:53;100915.50;;;7.75;100.00
19831;BME280;10076;52.008;4.708;2024-01-06T06:21:18;100916.22;;;7.93;100.00
19831;BME280;10076;52.008;4.708;2024-01-06T06:23:44;100920.59;;;7.78;100.00
19831;BME280;10076;52.008;4.708;2024-01-06T06:26:09;100913.00;;;7.58;100.00
19831;BME280;10076;52.008;4.708;2024-01-06T06:28:35;100920.53;;;7.64;100.00
19831;BME280;10076;52.008;4.708;2024-01-06T06:31:04;100929.22;;;7.80;100.00
19831;BME280;10076;52.008;4.708;2024-01-06T06:33:29;100922.91;;;7.69;100.00
19831;BME280;10076;52.008;4.708;2024-01-06T06:35:55;100931.94;;;7.79;100.00
19831;BME280;10076;52.008;4.708;2024-01-06T06:38:20;100936.53;;;7.75;100.00
19831;BME280;10076;52.008;4.708;2024-01-06T06:40:46;100944.38;;;7.61;100.00
19831;BME280;10076;52.008;4.708;2024-01-06T06:43:12;100941.31;;;7.69;100.00
19831;BME280;10076;52.008;4.708;2024-01-06T06:45:38;100949.53;;;7.63;100.00
19831;BME280;10076;52.008;4.708;2024-01-06T06:48:04;100953.56;;;7.84;100.00
19831;BME280;10076;52.008;4.708;2024-01-06T06:50:29;100965.66;;;7.57;100.00
19831;BME280;10076;52.008;4.708;2024-01-06T06:52:54;100959.69;;;7.69;100.00
19831;BME280;10076;52.008;4.708;2024-01-06T06:55:20;100962.75;;;7.61;100.00
19831;BME280;10076;52.008;4.708;2024-01-06T06:57:45;100970.47;;;7.64;100.00
19831;BME280;10076;52.008;4.708;2024-01-06T07:00:11;100977.75;;;7.75;100.00
19831;BME280;10076;52.008;4.708;2024-01-06T07:02:36;100977.97;;;7.86;100.00
19831;BME280;10076;52.008;4.708;2024-01-06T07:05:02;100986.47;;;7.60;100.00
19831;BME280;10076;52.008;4.708;2024-01-06T07:07:27;100988.94;;;7.78;100.00
19831;BME280;10076;52.008;4.708;2024-01-06T07:09:53;100988.59;;;7.84;100.00
19831;BME280;10076;52.008;4.708;2024-01-06T07:12:18;100991.22;;;7.84;100.00
19831;BME280;10076;52.008;4.708;2024-01-06T07:14:44;100997.84;;;7.76;100.00
19831;BME280;10076;52.008;4.708;2024-01-06T07:17:09;101006.75;;;7.73;100.00
19831;BME280;10076;52.008;4.708;2024-01-06T07:19:36;101010.91;;;7.62;100.00
19831;BME280;10076;52.008;4.708;2024-01-06T07:22:02;101013.38;;;7.65;100.00
19831;BME280;10076;52.008;4.708;2024-01-06T07:24:27;101025.41;;;7.53;100.00
19831;BME280;10076;52.008;4.708;2024-01-06T07:26:52;101021.84;;;7.54;100.00
19831;BME280;10076;52.008;4.708;2024-01-06T07:29:18;101024.28;;;7.73;100.00
19831;BME280;10076;52.008;4.708;2024-01-06T07:31:44;101036.06;;;7.66;100.00
19831;BME280;10076;52.008;4.708;2024-01-06T07:34:09;101042.44;;;7.62;100.00
19831;BME280;10076;52.008;4.708;2024-01-06T07:36:34;101039.69;;;7.48;100.00
19831;BME280;10076;52.008;4.708;2024-01-06T07:39:00;101043.00;;;7.52;100.00
19831;BME280;10076;52.008;4.708;2024-01-06T07:41:25;101042.66;;;7.57;100.00
19831;BME280;10076;52.008;4.708;2024-01-06T07:43:50;101050.28;;;7.47;100.00
19831;BME280;10076;52.008;4.708;2024-01-06T07:46:16;101062.50;;;7.48;100.00
19831;BME280;10076;52.008;4.708;2024-01-06T07:48:41;101063.00;;;7.54;100.00
19831;BME280;10076;52.008;4.708;2024-01-06T07:51:07;101067.50;;;7.37;100.00
19831;BME280;10076;52.008;4.708;2024-01-06T07:53:32;101066.94;;;7.62;100.00
19831;BME280;10076;52.008;4.708;2024-01-06T07:55:58;101073.00;;;7.48;100.00
19831;BME280;10076;52.008;4.708;2024-01-06T07:58:23;101073.34;;;7.42;100.00
19831;BME280;10076;52.008;4.708;2024-01-06T08:00:49;101076.91;;;7.41;100.00
19831;BME280;10076;52.008;4.708;2024-01-06T08:03:14;101078.50;;;7.43;100.00
19831;BME280;10076;52.008;4.708;2024-01-06T08:05:41;101080.97;;;7.46;100.00
19831;BME280;10076;52.008;4.708;2024-01-06T08:08:06;101093.25;;;7.46;100.00
19831;BME280;10076;52.008;4.708;2024-01-06T08:10:32;101094.88;;;7.63;100.00
19831;BME280;10076;52.008;4.708;2024-01-06T08:12:57;101102.34;;;7.86;100.00
19831;BME280;10076;52.008;4.708;2024-01-06T08:15:22;101099.47;;;7.75;100.00
19831;BME280;10076;52.008;4.708;2024-01-06T08:17:48;101108.03;;;7.79;100.00
19831;BME280;10076;52.008;4.708;2024-01-06T08:20:13;101108.13;;;7.77;100.00
19831;BME280;10076;52.008;4.708;2024-01-06T08:22:38;101112.94;;;7.54;100.00
19831;BME280;10076;52.008;4.708;2024-01-06T08:25:04;101110.84;;;7.60;100.00
19831;BME280;10076;52.008;4.708;2024-01-06T08:27:31;101119.31;;;7.65;100.00
19831;BME280;10076;52.008;4.708;2024-01-06T08:29:56;101122.38;;;7.58;100.00
19831;BME280;10076;52.008;4.708;2024-01-06T08:32:22;101128.72;;;7.69;100.00
19831;BME280;10076;52.008;4.708;2024-01-06T08:34:47;101126.78;;;7.73;100.00
19831;BME280;10076;52.008;4.708;2024-01-06T08:37:12;101134.56;;;7.74;100.00
19831;BME280;10076;52.008;4.708;2024-01-06T08:39:39;101132.13;;;7.71;100.00
19831;BME280;10076;52.008;4.708;2024-01-06T08:42:04;101133.81;;;7.72;100.00
19831;BME280;10076;52.008;4.708;2024-01-06T08:44:30;101138.00;;;7.92;100.00
19831;BME280;10076;52.008;4.708;2024-01-06T08:46:55;101130.69;;;7.97;100.00
19831;BME280;10076;52.008;4.708;2024-01-06T08:49:21;101138.84;;;8.08;100.00
19831;BME280;10076;52.008;4.708;2024-01-06T08:51:46;101138.81;;;7.92;100.00
19831;BME280;10076;52.008;4.708;2024-01-06T08:54:11;101152.75;;;7.94;100.00
19831;BME280;10076;52.008;4.708;2024-01-06T08:56:37;101154.63;;;8.08;100.00
19831;BME280;10076;52.008;4.708;2024-01-06T08:59:03;101149.94;;;7.97;100.00
19831;BME280;10076;52.008;4.708;2024-01-06T09:01:28;101163.19;;;8.11;100.00
19831;BME280;10076;52.008;4.708;2024-01-06T09:03:54;101166.94;;;8.07;100.00
19831;BME280;10076;52.008;4.708;2024-01-06T09:06:19;101166.59;;;7.98;100.00
19831;BME280;10076;52.008;4.708;2024-01-06T09:08:44;101174.13;;;7.88;100.00
19831;BME280;10076;52.008;4.708;2024-01-06T09:11:09;101171.03;;;7.80;100.00
19831;BME280;10076;52.008;4.708;2024-01-06T09:13:35;101185.34;;;8.07;100.00
19831;BME280;10076;52.008;4.708;2024-01-06T09:16:00;101178.84;;;7.97;100.00
19831;BME280;10076;52.008;4.708;2024-01-06T09:18:26;101181.50;;;7.97;100.00
19831;BME280;10076;52.008;4.708;2024-01-06T09:20:52;101192.00;;;8.14;100.00
19831;BME280;10076;52.008;4.708;2024-01-06T09:23:17;101195.03;;;8.22;100.00
19831;BME280;10076;52.008;4.708;2024-01-06T09:25:42;101192.06;;;8.28;100.00
19831;BME280;10076;52.008;4.708;2024-01-06T09:28:08;101203.56;;;8.10;100.00
19831;BME280;10076;52.008;4.708;2024-01-06T09:30:33;101209.56;;;8.29;100.00
19831;BME280;10076;52.008;4.708;2024-01-06T09:32:59;101214.38;;;8.21;100.00
19831;BME280;10076;52.008;4.708;2024-01-06T09:35:24;101212.06;;;8.15;100.00
19831;BME280;10076;52.008;4.708;2024-01-06T09:37:49;101214.50;;;8.03;100.00
19831;BME280;10076;52.008;4.708;2024-01-06T09:40:20;101222.13;;;7.92;100.00
19831;BME280;10076;52.008;4.708;2024-01-06T09:42:46;101218.41;;;8.11;100.00
19831;BME280;10076;52.008;4.708;2024-01-06T09:45:11;101224.06;;;8.21;100.00
19831;BME280;10076;52.008;4.708;2024-01-06T09:47:40;101234.69;;;8.02;100.00
19831;BME280;10076;52.008;4.708;2024-01-06T09:50:08;101232.81;;;8.04;100.00
19831;BME280;10076;52.008;4.708;2024-01-06T09:52:39;101245.91;;;8.06;100.00
19831;BME280;10076;52.008;4.708;2024-01-06T09:55:10;101247.56;;;8.07;100.00
19831;BME280;10076;52.008;4.708;2024-01-06T09:57:36;101255.72;;;8.19;100.00
19831;BME280;10076;52.008;4.708;2024-01-06T10:00:02;101251.47;;;8.32;100.00
19831;BME280;10076;52.008;4.708;2024-01-06T10:02:27;101260.81;;;8.05;100.00
19831;BME280;10076;52.008;4.708;2024-01-06T10:04:52;101259.13;;;8.04;100.00
19831;BME280;10076;52.008;4.708;2024-01-06T10:07:18;101260.72;;;7.91;100.00
19831;BME280;10076;52.008;4.708;2024-01-06T10:09:43;101258.28;;;8.04;100.00
19831;BME280;10076;52.008;4.708;2024-01-06T10:12:08;101258.09;;;7.91;100.00
19831;BME280;10076;52.008;4.708;2024-01-06T10:14:35;101259.44;;;8.30;100.00
19831;BME280;10076;52.008;4.708;2024-01-06T10:17:00;101263.75;;;8.16;100.00
19831;BME280;10076;52.008;4.708;2024-01-06T10:19:26;101266.75;;;8.41;100.00
19831;BME280;10076;52.008;4.708;2024-01-06T10:21:51;101275.22;;;8.30;100.00
19831;BME280;10076;52.008;4.708;2024-01-06T10:24:17;101272.69;;;8.29;100.00
19831;BME280;10076;52.008;4.708;2024-01-06T10:26:45;101276.53;;;8.54;100.00
19831;BME280;10076;52.008;4.708;2024-01-06T10:29:10;101283.59;;;8.54;100.00
19831;BME280;10076;52.008;4.708;2024-01-06T10:31:36;101285.31;;;8.38;100.00
19831;BME280;10076;52.008;4.708;2024-01-06T10:34:02;101284.34;;;8.40;100.00
19831;BME280;10076;52.008;4.708;2024-01-06T10:36:28;101280.31;;;8.18;100.00
19831;BME280;10076;52.008;4.708;2024-01-06T10:38:54;101293.66;;;8.30;100.00
19831;BME280;10076;52.008;4.708;2024-01-06T10:41:20;101299.34;;;8.06;100.00
19831;BME280;10076;52.008;4.708;2024-01-06T10:43:47;101291.44;;;8.06;100.00
19831;BME280;10076;52.008;4.708;2024-01-06T10:46:14;101297.13;;;7.99;100.00
19831;BME280;10076;52.008;4.708;2024-01-06T10:48:42;101298.97;;;7.97;100.00
19831;BME280;10076;52.008;4.708;2024-01-06T10:51:08;101306.06;;;7.95;100.00
19831;BME280;10076;52.008;4.708;2024-01-06T10:53:34;101309.25;;;8.01;100.00
19831;BME280;10076;52.008;4.708;2024-01-06T10:56:07;101297.88;;;8.01;100.00
19831;BME280;10076;52.008;4.708;2024-01-06T10:58:47;101307.38;;;8.03;100.00
19831;BME280;10076;52.008;4.708;2024-01-06T11:01:16;101317.28;;;8.15;100.00
19831;BME280;10076;52.008;4.708;2024-01-06T11:03:45;101313.09;;;8.11;100.00
19831;BME280;10076;52.008;4.708;2024-01-06T11:06:11;101309.38;;;8.15;100.00
19831;BME280;10076;52.008;4.708;2024-01-06T11:08:46;101311.69;;;8.21;100.00
19831;BME280;10076;52.008;4.708;2024-01-06T11:11:16;101309.56;;;7.95;100.00
19831;BME280;10076;52.008;4.708;2024-01-06T11:13:42;101314.75;;;7.97;100.00
19831;BME280;10076;52.008;4.708;2024-01-06T11:16:10;101305.44;;;8.07;100.00
19831;BME280;10076;52.008;4.708;2024-01-06T11:18:37;101317.22;;;8.00;100.00
19831;BME280;10076;52.008;4.708;2024-01-06T11:21:22;101316.56;;;8.12;100.00
19831;BME280;10076;52.008;4.708;2024-01-06T11:24:15;101327.84;;;8.30;100.00
19831;BME280;10076;52.008;4.708;2024-01-06T11:26:45;101326.47;;;8.23;100.00
19831;BME280;10076;52.008;4.708;2024-01-06T11:29:10;101328.28;;;8.06;100.00
19831;BME280;10076;52.008;4.708;2024-01-06T11:31:37;101323.50;;;8.14;100.00
19831;BME280;10076;52.008;4.708;2024-01-06T11:34:16;101321.22;;;8.07;100.00
19831;BME280;10076;52.008;4.708;2024-01-06T11:36:47;101327.94;;;8.29;100.00
19831;BME280;10076;52.008;4.708;2024-01-06T11:39:36;101326.59;;;8.37;100.00
19831;BME280;10076;52.008;4.708;2024-01-06T11:42:03;101323.69;;;8.26;100.00
19831;BME280;10076;52.008;4.708;2024-01-06T11:44:29;101330.28;;;8.18;100.00
19831;BME280;10076;52.008;4.708;2024-01-06T11:46:56;101334.03;;;8.14;100.00
19831;BME280;10076;52.008;4.708;2024-01-06T11:49:22;101328.88;;;8.11;100.00
19831;BME280;10076;52.008;4.708;2024-01-06T11:51:51;101333.19;;;8.29;100.00
19831;BME280;10076;52.008;4.708;2024-01-06T11:54:16;101329.53;;;8.31;100.00
19831;BME280;10076;52.008;4.708;2024-01-06T11:56:41;101338.47;;;8.29;100.00
19831;BME280;10076;52.008;4.708;2024-01-06T11:59:07;101341.59;;;8.20;100.00
19831;BME280;10076;52.008;4.708;2024-01-06T12:01:38;101333.75;;;8.19;100.00
19831;BME280;10076;52.008;4.708;2024-01-06T12:04:05;101339.19;;;8.16;100.00
19831;BME280;10076;52.008;4.708;2024-01-06T12:06:31;101330.56;;;8.12;100.00
19831;BME280;10076;52.008;4.708;2024-01-06T12:09:06;101330.28;;;8.18;100.00
19831;BME280;10076;52.008;4.708;2024-01-06T12:11:32;101336.25;;;8.22;100.00
19831;BME280;10076;52.008;4.708;2024-01-06T12:13:57;101337.94;;;8.23;100.00
19831;BME280;10076;52.008;4.708;2024-01-06T12:16:22;101333.09;;;8.30;100.00
19831;BME280;10076;52.008;4.708;2024-01-06T12:18:53;101332.22;;;8.15;100.00
19831;BME280;10076;52.008;4.708;2024-01-06T12:21:21;101333.84;;;8.00;100.00
19831;BME280;10076;52.008;4.708;2024-01-06T12:23:47;101342.69;;;7.82;100.00
19831;BME280;10076;52.008;4.708;2024-01-06T12:26:12;101339.28;;;7.80;100.00
19831;BME280;10076;52.008;4.708;2024-01-06T12:28:37;101338.94;;;8.03;100.00
19831;BME280;10076;52.008;4.708;2024-01-06T12:31:04;101339.94;;;8.18;100.00
19831;BME280;10076;52.008;4.708;2024-01-06T12:33:30;101336.47;;;8.17;100.00
19831;BME280;10076;52.008;4.708;2024-01-06T12:35:57;101337.06;;;8.22;100.00
19831;BME280;10076;52.008;4.708;2024-01-06T12:38:23;101341.19;;;8.11;100.00
19831;BME280;10076;52.008;4.708;2024-01-06T12:40:52;101337.41;;;7.99;100.00
19831;BME280;10076;52.008;4.708;2024-01-06T12:43:19;101338.81;;;7.89;100.00